createdAt,value
2022-11-07T00:01:11.084Z,98708.00
2022-11-07T00:02:45.697Z,98710.00
2022-11-07T00:04:19.033Z,98711.00
2022-11-07T00:05:54.874Z,98712.00
2022-11-07T00:07:28.155Z,98713.00
2022-11-07T00:09:00.436Z,98707.00
2022-11-07T00:10:33.613Z,98710.00
2022-11-07T00:12:06.858Z,98714.00
2022-11-07T00:13:40.091Z,98702.00
2022-11-07T00:15:13.199Z,98710.00
2022-11-07T00:16:47.861Z,98717.00
2022-11-07T00:18:22.581Z,98705.00
2022-11-07T00:19:55.690Z,98714.00
2022-11-07T00:21:28.850Z,98709.00
2022-11-07T00:23:01.976Z,98709.00
2022-11-07T00:24:35.208Z,98711.00
2022-11-07T00:26:10.959Z,98705.00
2022-11-07T00:27:44.299Z,98712.00
2022-11-07T00:29:20.209Z,98715.00
2022-11-07T00:30:53.472Z,98710.00
2022-11-07T00:32:26.838Z,98718.00
2022-11-07T00:34:01.288Z,98723.00
2022-11-07T00:35:34.869Z,98714.00
2022-11-07T00:37:08.067Z,98723.00
2022-11-07T00:38:41.247Z,98715.00
2022-11-07T00:40:14.459Z,98716.00
2022-11-07T00:41:48.311Z,98717.00
2022-11-07T00:43:21.461Z,98720.00
2022-11-07T00:44:54.656Z,98720.00
2022-11-07T00:46:26.854Z,98729.00
2022-11-07T00:48:00.109Z,98723.00
2022-11-07T00:49:34.675Z,98739.00
2022-11-07T00:51:09.746Z,98735.00
2022-11-07T00:52:43.026Z,98737.00
2022-11-07T00:54:16.214Z,98734.00
2022-11-07T00:55:49.485Z,98741.00
2022-11-07T00:57:22.776Z,98739.00
2022-11-07T00:58:57.132Z,98740.00
2022-11-07T01:00:30.504Z,98741.00
2022-11-07T01:02:03.726Z,98754.00
2022-11-07T01:03:54.626Z,98747.00
2022-11-07T01:05:28.113Z,98746.00
2022-11-07T01:07:03.081Z,98744.00
2022-11-07T01:08:35.475Z,98740.00
2022-11-07T01:10:09.698Z,98748.00
2022-11-07T01:11:44.336Z,98747.00
2022-11-07T01:13:16.820Z,98760.00
2022-11-07T01:14:50.122Z,98747.00
2022-11-07T01:16:22.775Z,98744.00
2022-11-07T01:17:55.975Z,98751.00
2022-11-07T01:19:29.288Z,98746.00
2022-11-07T01:21:05.725Z,98737.00
2022-11-07T01:22:38.915Z,98740.00
2022-11-07T01:24:15.624Z,98741.00
2022-11-07T01:25:52.575Z,98755.00
2022-11-07T01:27:25.747Z,98756.00
2022-11-07T01:28:58.003Z,98753.00
2022-11-07T01:30:31.361Z,98746.00
2022-11-07T01:32:05.163Z,98759.00
2022-11-07T01:33:38.696Z,98749.00
2022-11-07T01:35:12.628Z,98755.00
2022-11-07T01:36:47.470Z,98754.00
2022-11-07T01:38:20.424Z,98752.00
2022-11-07T01:39:53.568Z,98752.00
2022-11-07T01:41:29.112Z,98759.00
2022-11-07T01:43:02.376Z,98747.00
2022-11-07T01:44:56.628Z,98756.00
2022-11-07T01:46:33.453Z,98750.00
2022-11-07T01:48:06.869Z,98745.00
2022-11-07T01:49:43.429Z,98749.00
2022-11-07T01:51:18.121Z,98758.00
2022-11-07T01:52:55.731Z,98762.00
2022-11-07T01:54:35.576Z,98757.00
2022-11-07T01:56:17.110Z,98751.00
2022-11-07T01:57:55.068Z,98742.00
2022-11-07T01:59:33.014Z,98748.00
2022-11-07T02:01:06.796Z,98749.00
2022-11-07T02:02:41.608Z,98735.00
2022-11-07T02:04:15.049Z,98751.00
2022-11-07T02:05:53.476Z,98744.00
2022-11-07T02:07:27.386Z,98754.00
2022-11-07T02:09:02.236Z,98754.00
2022-11-07T02:10:43.232Z,98748.00
2022-11-07T02:12:18.052Z,98749.00
2022-11-07T02:13:51.206Z,98749.00
2022-11-07T02:15:26.306Z,98755.00
2022-11-07T02:17:04.026Z,98753.00
2022-11-07T02:18:41.369Z,98753.00
2022-11-07T02:20:15.185Z,98750.00
2022-11-07T02:21:58.245Z,98743.00
2022-11-07T02:23:42.835Z,98749.00
2022-11-07T02:25:20.008Z,98740.00
2022-11-07T02:26:57.422Z,98750.00
2022-11-07T02:28:32.500Z,98746.00
2022-11-07T02:30:10.561Z,98748.00
2022-11-07T02:31:42.852Z,98742.00
2022-11-07T02:33:21.595Z,98740.00
2022-11-07T02:35:00.934Z,98746.00
2022-11-07T02:36:34.853Z,98742.00
2022-11-07T02:38:13.340Z,98738.00
2022-11-07T02:39:45.984Z,98736.00
2022-11-07T02:41:25.467Z,98743.00
2022-11-07T02:42:59.359Z,98740.00
2022-11-07T02:44:33.368Z,98740.00
2022-11-07T02:46:11.300Z,98743.00
2022-11-07T02:47:44.631Z,98742.00
2022-11-07T02:49:18.501Z,98741.00
2022-11-07T02:50:51.646Z,98740.00
2022-11-07T02:52:24.920Z,98737.00
2022-11-07T02:53:58.475Z,98740.00
2022-11-07T02:55:31.791Z,98746.00
2022-11-07T02:57:06.479Z,98737.00
2022-11-07T02:58:39.933Z,98735.00
2022-11-07T03:00:15.831Z,98733.00
2022-11-07T03:01:49.159Z,98738.00
2022-11-07T03:03:22.997Z,98730.00
2022-11-07T03:04:58.261Z,98740.00
2022-11-07T03:06:31.533Z,98733.00
2022-11-07T03:08:04.305Z,98744.00
2022-11-07T03:09:37.483Z,98738.00
2022-11-07T03:11:12.503Z,98736.00
2022-11-07T03:12:47.397Z,98749.00
2022-11-07T03:14:20.447Z,98748.00
2022-11-07T03:15:53.254Z,98746.00
2022-11-07T03:17:26.422Z,98751.00
2022-11-07T03:19:01.923Z,98753.00
2022-11-07T03:20:35.305Z,98751.00
2022-11-07T03:22:07.439Z,98741.00
2022-11-07T03:23:40.697Z,98752.00
2022-11-07T03:25:14.057Z,98745.00
2022-11-07T03:26:47.272Z,98758.00
2022-11-07T03:28:21.961Z,98755.00
2022-11-07T03:29:54.152Z,98754.00
2022-11-07T03:31:27.318Z,98756.00
2022-11-07T03:33:00.628Z,98761.00
2022-11-07T03:34:33.817Z,98764.00
2022-11-07T03:36:07.823Z,98756.00
2022-11-07T03:37:39.994Z,98758.00
2022-11-07T03:39:13.227Z,98763.00
2022-11-07T03:40:47.312Z,98770.00
2022-11-07T03:42:20.549Z,98765.00
2022-11-07T03:43:55.161Z,98764.00
2022-11-07T03:45:28.339Z,98761.00
2022-11-07T03:47:01.478Z,98757.00
2022-11-07T03:48:35.720Z,98754.00
2022-11-07T03:50:13.493Z,98759.00
2022-11-07T03:51:46.675Z,98760.00
2022-11-07T03:53:25.205Z,98766.00
2022-11-07T03:54:59.232Z,98767.00
2022-11-07T03:56:32.465Z,98761.00
2022-11-07T03:58:06.228Z,98772.00
2022-11-07T03:59:40.790Z,98760.00
2022-11-07T04:01:13.964Z,98762.00
2022-11-07T04:02:47.310Z,98767.00
2022-11-07T04:04:19.687Z,98765.00
2022-11-07T04:05:52.853Z,98772.00
2022-11-07T04:07:25.024Z,98777.00
2022-11-07T04:08:58.338Z,98772.00
2022-11-07T04:10:31.483Z,98771.00
2022-11-07T04:12:22.393Z,98774.00
2022-11-07T04:14:13.323Z,98781.00
2022-11-07T04:16:05.657Z,98771.00
2022-11-07T04:17:38.937Z,98779.00
2022-11-07T04:19:12.239Z,98787.00
2022-11-07T04:20:45.436Z,98768.00
2022-11-07T04:22:20.088Z,98777.00
2022-11-07T04:23:53.303Z,98779.00
2022-11-07T04:25:40.378Z,98770.00
2022-11-07T04:27:32.533Z,98775.00
2022-11-07T04:29:05.830Z,98779.00
2022-11-07T04:30:39.161Z,98778.00
2022-11-07T04:32:13.667Z,98780.00
2022-11-07T04:33:46.847Z,98780.00
2022-11-07T04:35:20.406Z,98781.00
2022-11-07T04:36:53.575Z,98785.00
2022-11-07T04:38:27.685Z,98786.00
2022-11-07T04:39:59.882Z,98774.00
2022-11-07T04:41:33.016Z,98795.00
2022-11-07T04:43:09.195Z,98787.00
2022-11-07T04:44:41.659Z,98782.00
2022-11-07T04:46:15.098Z,98792.00
2022-11-07T04:47:50.342Z,98788.00
2022-11-07T04:49:23.627Z,98782.00
2022-11-07T04:50:57.558Z,98787.00
2022-11-07T04:52:29.974Z,98786.00
2022-11-07T04:54:03.204Z,98778.00
2022-11-07T04:55:36.374Z,98776.00
2022-11-07T04:57:09.539Z,98773.00
2022-11-07T04:58:43.089Z,98766.00
2022-11-07T05:00:18.324Z,98765.00
2022-11-07T05:01:51.698Z,98764.00
2022-11-07T05:03:26.261Z,98765.00
2022-11-07T05:04:59.425Z,98775.00
2022-11-07T05:06:37.559Z,98775.00
2022-11-07T05:08:10.931Z,98768.00
2022-11-07T05:09:44.226Z,98774.00
2022-11-07T05:11:17.519Z,98774.00
2022-11-07T05:12:50.930Z,98769.00
2022-11-07T05:14:25.384Z,98768.00
2022-11-07T05:15:59.251Z,98779.00
2022-11-07T05:17:32.475Z,98778.00
2022-11-07T05:19:07.087Z,98774.00
2022-11-07T05:20:41.202Z,98772.00
2022-11-07T05:22:31.878Z,98773.00
2022-11-07T05:24:05.727Z,98772.00
2022-11-07T05:25:38.385Z,98775.00
2022-11-07T05:27:19.368Z,98772.00
2022-11-07T05:28:52.523Z,98776.00
2022-11-07T05:30:24.682Z,98772.00
2022-11-07T05:31:57.980Z,98776.00
2022-11-07T05:33:31.334Z,98781.00
2022-11-07T05:35:06.665Z,98779.00
2022-11-07T05:36:40.819Z,98768.00
2022-11-07T05:38:14.253Z,98773.00
2022-11-07T05:39:51.117Z,98775.00
2022-11-07T05:41:28.259Z,98774.00
2022-11-07T05:43:02.135Z,98787.00
2022-11-07T05:44:35.612Z,98784.00
2022-11-07T05:46:09.617Z,98778.00
2022-11-07T05:47:42.863Z,98778.00
2022-11-07T05:49:16.278Z,98776.00
2022-11-07T05:50:50.741Z,98782.00
2022-11-07T05:52:23.923Z,98794.00
2022-11-07T05:53:57.096Z,98786.00
2022-11-07T05:55:30.636Z,98783.00
2022-11-07T05:57:03.804Z,98783.00
2022-11-07T05:58:37.806Z,98796.00
2022-11-07T06:00:13.129Z,98800.00
2022-11-07T06:01:50.965Z,98794.00
2022-11-07T06:03:24.716Z,98791.00
2022-11-07T06:04:57.820Z,98802.00
2022-11-07T06:06:32.609Z,98802.00
2022-11-07T06:08:06.549Z,98802.00
2022-11-07T06:09:39.717Z,98800.00
2022-11-07T06:11:12.905Z,98807.00
2022-11-07T06:12:46.188Z,98805.00
2022-11-07T06:14:19.761Z,98821.00
2022-11-07T06:15:53.027Z,98807.00
2022-11-07T06:17:26.142Z,98808.00
2022-11-07T06:18:59.387Z,98820.00
2022-11-07T06:20:32.815Z,98820.00
2022-11-07T06:22:07.288Z,98818.00
2022-11-07T06:23:40.513Z,98820.00
2022-11-07T06:25:13.905Z,98805.00
2022-11-07T06:26:48.222Z,98813.00
2022-11-07T06:28:21.519Z,98815.00
2022-11-07T06:29:54.737Z,98814.00
2022-11-07T06:31:27.873Z,98822.00
2022-11-07T06:33:03.169Z,98815.00
2022-11-07T06:34:36.299Z,98821.00
2022-11-07T06:36:12.453Z,98819.00
2022-11-07T06:37:46.979Z,98816.00
2022-11-07T06:39:20.238Z,98817.00
2022-11-07T06:40:53.332Z,98821.00
2022-11-07T06:42:27.114Z,98819.00
2022-11-07T06:44:00.387Z,98824.00
2022-11-07T06:45:33.686Z,98821.00
2022-11-07T06:47:07.318Z,98819.00
2022-11-07T06:48:41.073Z,98823.00
2022-11-07T06:50:14.351Z,98825.00
2022-11-07T06:51:48.075Z,98832.00
2022-11-07T06:53:22.853Z,98828.00
2022-11-07T06:54:56.000Z,98833.00
2022-11-07T06:56:29.372Z,98830.00
2022-11-07T06:58:02.937Z,98830.00
2022-11-07T06:59:36.294Z,98835.00
2022-11-07T07:01:13.508Z,98823.00
2022-11-07T07:02:58.366Z,98828.00
2022-11-07T07:04:32.350Z,98826.00
2022-11-07T07:06:10.537Z,98836.00
2022-11-07T07:07:43.696Z,98832.00
2022-11-07T07:09:18.440Z,98831.00
2022-11-07T07:10:51.653Z,98830.00
2022-11-07T07:12:26.314Z,98849.00
2022-11-07T07:14:02.119Z,98839.00
2022-11-07T07:15:49.854Z,98838.00
2022-11-07T07:17:24.281Z,98848.00
2022-11-07T07:18:57.625Z,98847.00
2022-11-07T07:20:31.454Z,98837.00
2022-11-07T07:22:04.563Z,98834.00
2022-11-07T07:23:39.061Z,98842.00
2022-11-07T07:25:13.653Z,98834.00
2022-11-07T07:26:46.844Z,98842.00
2022-11-07T07:28:20.016Z,98841.00
2022-11-07T07:29:53.505Z,98834.00
2022-11-07T07:31:31.695Z,98840.00
2022-11-07T07:33:04.961Z,98843.00
2022-11-07T07:34:38.088Z,98838.00
2022-11-07T07:36:16.492Z,98844.00
2022-11-07T07:37:53.068Z,98845.00
2022-11-07T07:39:28.046Z,98852.00
2022-11-07T07:41:04.025Z,98855.00
2022-11-07T07:42:43.270Z,98848.00
2022-11-07T07:44:26.601Z,98851.00
2022-11-07T07:46:00.664Z,98851.00
2022-11-07T07:47:33.834Z,98847.00
2022-11-07T07:49:07.085Z,98844.00
2022-11-07T07:50:40.247Z,98853.00
2022-11-07T07:52:13.580Z,98855.00
2022-11-07T07:53:46.715Z,98855.00
2022-11-07T07:55:19.819Z,98851.00
2022-11-07T07:56:54.716Z,98859.00
2022-11-07T07:58:28.452Z,98857.00
2022-11-07T08:00:01.552Z,98862.00
2022-11-07T08:01:57.984Z,98860.00
2022-11-07T08:03:50.723Z,98860.00
2022-11-07T08:05:24.582Z,98870.00
2022-11-07T08:06:57.709Z,98857.00
2022-11-07T08:08:36.848Z,98856.00
2022-11-07T08:10:39.517Z,98859.00
2022-11-07T08:12:05.474Z,98863.00
2022-11-07T08:13:38.762Z,98868.00
2022-11-07T08:15:13.432Z,98859.00
2022-11-07T08:16:46.577Z,98866.00
2022-11-07T08:18:22.804Z,98864.00
2022-11-07T08:19:55.984Z,98877.00
2022-11-07T08:21:29.310Z,98874.00
2022-11-07T08:23:04.355Z,98878.00
2022-11-07T08:24:37.510Z,98883.00
2022-11-07T08:26:10.922Z,98879.00
2022-11-07T08:27:44.072Z,98879.00
2022-11-07T08:29:17.280Z,98870.00
2022-11-07T08:30:58.911Z,98883.00
2022-11-07T08:32:32.201Z,98876.00
2022-11-07T08:34:06.727Z,98878.00
2022-11-07T08:35:42.670Z,98888.00
2022-11-07T08:37:16.148Z,98885.00
2022-11-07T08:38:49.534Z,98884.00
2022-11-07T08:40:24.000Z,98885.00
2022-11-07T08:41:57.126Z,98895.00
2022-11-07T08:43:30.454Z,98899.00
2022-11-07T08:45:04.152Z,98892.00
2022-11-07T08:46:37.606Z,98893.00
2022-11-07T08:48:11.701Z,98885.00
2022-11-07T08:49:46.272Z,98891.00
2022-11-07T08:51:19.752Z,98892.00
2022-11-07T08:52:55.000Z,98885.00
2022-11-07T08:54:32.501Z,98891.00
2022-11-07T08:56:08.769Z,98877.00
2022-11-07T08:57:42.145Z,98886.00
2022-11-07T08:59:15.733Z,98890.00
2022-11-07T09:00:49.055Z,98892.00
2022-11-07T09:04:15.561Z,98908.00
2022-11-07T09:05:50.262Z,98888.00
2022-11-07T09:07:23.449Z,98894.00
2022-11-07T09:08:56.820Z,98897.00
2022-11-07T09:10:29.957Z,98891.00
2022-11-07T09:12:03.298Z,98899.00
2022-11-07T09:13:36.907Z,98901.00
2022-11-07T09:15:11.483Z,98891.00
2022-11-07T09:16:44.575Z,98901.00
2022-11-07T09:18:18.052Z,98901.00
2022-11-07T09:19:51.565Z,98905.00
2022-11-07T09:21:29.814Z,98898.00
2022-11-07T09:23:06.141Z,98904.00
2022-11-07T09:24:49.810Z,98899.00
2022-11-07T09:26:23.165Z,98900.00
2022-11-07T09:27:56.709Z,98901.00
2022-11-07T09:29:29.893Z,98905.00
2022-11-07T09:31:05.224Z,98911.00
2022-11-07T09:32:45.030Z,98908.00
2022-11-07T09:34:19.494Z,98913.00
2022-11-07T09:35:53.888Z,98915.00
2022-11-07T09:37:29.145Z,98908.00
2022-11-07T09:39:02.142Z,98908.00
2022-11-07T09:40:49.517Z,98907.00
2022-11-07T09:42:42.371Z,98912.00
2022-11-07T09:44:44.723Z,98916.00
2022-11-07T09:46:34.904Z,98916.00
2022-11-07T09:48:18.484Z,98911.00
2022-11-07T09:49:54.995Z,98924.00
2022-11-07T09:51:35.424Z,98930.00
2022-11-07T09:53:23.140Z,98918.00
2022-11-07T09:55:04.621Z,98920.00
2022-11-07T09:56:38.087Z,98924.00
2022-11-07T09:58:23.293Z,98928.00
2022-11-07T10:00:01.229Z,98920.00
2022-11-07T10:01:51.431Z,98936.00
2022-11-07T10:03:24.804Z,98930.00
2022-11-07T10:05:02.008Z,98937.00
2022-11-07T10:06:47.145Z,98938.00
2022-11-07T10:08:30.899Z,98937.00
2022-11-07T10:10:18.973Z,98938.00
2022-11-07T10:12:04.370Z,98941.00
2022-11-07T10:13:57.688Z,98953.00
2022-11-07T10:15:46.702Z,98955.00
2022-11-07T10:17:34.616Z,98953.00
2022-11-07T10:19:29.314Z,98953.00
2022-11-07T10:23:30.724Z,98951.00
2022-11-07T10:25:29.881Z,98952.00
2022-11-07T10:27:03.933Z,98964.00
2022-11-07T10:28:46.489Z,98959.00
2022-11-07T10:30:22.853Z,98965.00
2022-11-07T10:32:04.820Z,98957.00
2022-11-07T10:33:45.713Z,98959.00
2022-11-07T10:35:28.147Z,98951.00
2022-11-07T10:37:01.747Z,98948.00
2022-11-07T10:38:41.164Z,98956.00
2022-11-07T10:40:18.814Z,98953.00
2022-11-07T10:42:03.597Z,98950.00
2022-11-07T10:43:41.352Z,98960.00
2022-11-07T10:45:18.652Z,98960.00
2022-11-07T10:46:54.609Z,98956.00
2022-11-07T10:48:29.449Z,98949.00
2022-11-07T10:50:19.511Z,98955.00
2022-11-07T10:51:53.729Z,98972.00
2022-11-07T10:53:28.033Z,98956.00
2022-11-07T10:55:09.411Z,98952.00
2022-11-07T10:56:47.631Z,98964.00
2022-11-07T10:58:24.096Z,98951.00
2022-11-07T11:00:00.175Z,98960.00
2022-11-07T11:01:33.542Z,98955.00
2022-11-07T11:03:29.060Z,98952.00
2022-11-07T11:05:26.142Z,98947.00
2022-11-07T11:07:06.329Z,98946.00
2022-11-07T11:08:40.357Z,98944.00
2022-11-07T11:10:21.997Z,98936.00
2022-11-07T11:11:55.461Z,98942.00
2022-11-07T11:13:31.151Z,98937.00
2022-11-07T11:15:11.472Z,98944.00
2022-11-07T11:16:45.197Z,98948.00
2022-11-07T11:18:19.955Z,98935.00
2022-11-07T11:19:55.046Z,98932.00
2022-11-07T11:21:41.225Z,98928.00
2022-11-07T11:23:21.074Z,98928.00
2022-11-07T11:25:19.520Z,98930.00
2022-11-07T11:26:55.071Z,98933.00
2022-11-07T11:28:34.984Z,98927.00
2022-11-07T11:30:15.825Z,98934.00
2022-11-07T11:31:54.053Z,98924.00
2022-11-07T11:33:36.417Z,98941.00
2022-11-07T11:35:25.559Z,98936.00
2022-11-07T11:37:07.421Z,98929.00
2022-11-07T11:38:40.908Z,98932.00
2022-11-07T11:40:22.025Z,98929.00
2022-11-07T11:41:58.636Z,98930.00
2022-11-07T11:43:41.549Z,98929.00
2022-11-07T11:45:20.770Z,98924.00
2022-11-07T11:47:05.321Z,98920.00
2022-11-07T11:48:45.999Z,98929.00
2022-11-07T11:50:26.025Z,98924.00
2022-11-07T11:52:09.263Z,98932.00
2022-11-07T11:53:42.841Z,98928.00
2022-11-07T11:55:18.599Z,98922.00
2022-11-07T11:56:56.055Z,98934.00
2022-11-07T11:58:48.217Z,98926.00
2022-11-07T12:00:25.189Z,98924.00
2022-11-07T12:02:15.830Z,98927.00
2022-11-07T12:04:20.363Z,98927.00
2022-11-07T12:06:20.094Z,98933.00
2022-11-07T12:08:15.914Z,98924.00
2022-11-07T12:09:58.519Z,98926.00
2022-11-07T12:11:42.892Z,98925.00
2022-11-07T12:13:29.346Z,98933.00
2022-11-07T12:15:37.974Z,98933.00
2022-11-07T12:17:18.528Z,98930.00
2022-11-07T12:19:01.056Z,98930.00
2022-11-07T12:20:41.445Z,98925.00
2022-11-07T12:22:26.859Z,98935.00
2022-11-07T12:24:19.954Z,98940.00
2022-11-07T12:26:02.523Z,98933.00
2022-11-07T12:27:48.115Z,98928.00
2022-11-07T12:29:33.441Z,98933.00
2022-11-07T12:31:23.438Z,98930.00
2022-11-07T12:33:21.377Z,98933.00
2022-11-07T12:35:15.805Z,98927.00
2022-11-07T12:37:17.369Z,98928.00
2022-11-07T12:39:11.637Z,98924.00
2022-11-07T12:40:57.228Z,98923.00
2022-11-07T12:42:47.641Z,98927.00
2022-11-07T12:44:49.436Z,98934.00
2022-11-07T12:46:32.619Z,98930.00
2022-11-07T12:48:34.658Z,98938.00
2022-11-07T12:50:26.192Z,98926.00
2022-11-07T12:52:09.431Z,98922.00
2022-11-07T12:53:54.088Z,98933.00
2022-11-07T12:55:37.737Z,98931.00
2022-11-07T12:57:19.887Z,98919.00
2022-11-07T12:58:55.079Z,98930.00
2022-11-07T13:00:30.689Z,98926.00
2022-11-07T13:02:16.635Z,98923.00
2022-11-07T13:04:04.480Z,98921.00
2022-11-07T13:05:55.158Z,98920.00
2022-11-07T13:07:38.481Z,98917.00
2022-11-07T13:09:27.421Z,98913.00
2022-11-07T13:11:13.326Z,98911.00
2022-11-07T13:12:59.831Z,98916.00
2022-11-07T13:14:39.052Z,98913.00
2022-11-07T13:16:25.303Z,98917.00
2022-11-07T13:17:58.405Z,98918.00
2022-11-07T13:19:34.927Z,98916.00
2022-11-07T13:21:09.288Z,98922.00
2022-11-07T13:22:42.687Z,98920.00
2022-11-07T13:24:22.957Z,98925.00
2022-11-07T13:26:10.663Z,98928.00
2022-11-07T13:28:07.032Z,98927.00
2022-11-07T13:29:41.846Z,98929.00
2022-11-07T13:31:42.559Z,98935.00
2022-11-07T13:33:28.599Z,98919.00
2022-11-07T13:35:02.891Z,98933.00
2022-11-07T13:36:38.177Z,98929.00
2022-11-07T13:38:17.504Z,98926.00
2022-11-07T13:39:55.896Z,98924.00
2022-11-07T13:41:32.090Z,98933.00
2022-11-07T13:43:14.912Z,98932.00
2022-11-07T13:44:56.450Z,98935.00
2022-11-07T13:46:35.893Z,98924.00
2022-11-07T13:48:17.852Z,98933.00
2022-11-07T13:49:52.520Z,98927.00
2022-11-07T13:51:34.339Z,98922.00
2022-11-07T13:53:19.125Z,98923.00
2022-11-07T13:55:01.914Z,98921.00
2022-11-07T13:56:44.093Z,98921.00
2022-11-07T13:58:20.637Z,98922.00
2022-11-07T14:00:00.518Z,98928.00
2022-11-07T14:01:44.073Z,98925.00
2022-11-07T14:03:27.650Z,98923.00
2022-11-07T14:05:21.807Z,98921.00
2022-11-07T14:06:59.576Z,98930.00
2022-11-07T14:08:37.314Z,98936.00
2022-11-07T14:10:24.593Z,98927.00
2022-11-07T14:11:59.529Z,98935.00
2022-11-07T14:13:40.944Z,98939.00
2022-11-07T14:15:17.860Z,98939.00
2022-11-07T14:16:52.368Z,98939.00
2022-11-07T14:18:32.596Z,98942.00
2022-11-07T14:20:15.289Z,98932.00
2022-11-07T14:21:49.555Z,98939.00
2022-11-07T14:23:25.942Z,98939.00
2022-11-07T14:24:59.328Z,98940.00
2022-11-07T14:26:35.491Z,98940.00
2022-11-07T14:28:18.023Z,98943.00
2022-11-07T14:29:53.248Z,98941.00
2022-11-07T14:31:30.464Z,98941.00
2022-11-07T14:33:05.773Z,98947.00
2022-11-07T14:34:45.743Z,98952.00
2022-11-07T14:36:19.993Z,98942.00
2022-11-07T14:37:53.511Z,98948.00
2022-11-07T14:39:30.262Z,98943.00
2022-11-07T14:41:04.301Z,98948.00
2022-11-07T14:42:38.006Z,98959.00
2022-11-07T14:44:18.549Z,98939.00
2022-11-07T14:46:12.037Z,98941.00
2022-11-07T14:47:48.656Z,98944.00
2022-11-07T14:49:27.856Z,98942.00
2022-11-07T14:51:02.132Z,98947.00
2022-11-07T14:52:42.289Z,98953.00
2022-11-07T14:54:20.908Z,98952.00
2022-11-07T14:55:57.420Z,98948.00
2022-11-07T14:57:31.999Z,98952.00
2022-11-07T14:59:11.364Z,98950.00
2022-11-07T15:00:55.868Z,98951.00
2022-11-07T15:02:32.579Z,98948.00
2022-11-07T15:04:27.809Z,98950.00
2022-11-07T15:06:01.964Z,98955.00
2022-11-07T15:07:47.571Z,98948.00
2022-11-07T15:09:33.464Z,98944.00
2022-11-07T15:11:25.448Z,98952.00
2022-11-07T15:13:02.417Z,98949.00
2022-11-07T15:14:37.650Z,98945.00
2022-11-07T15:16:18.933Z,98938.00
2022-11-07T15:17:55.019Z,98935.00
2022-11-07T15:19:29.403Z,98937.00
2022-11-07T15:21:03.445Z,98941.00
2022-11-07T15:22:39.229Z,98941.00
2022-11-07T15:24:42.958Z,98949.00
2022-11-07T15:26:23.769Z,98941.00
2022-11-07T15:27:57.050Z,98948.00
2022-11-07T15:29:34.273Z,98935.00
2022-11-07T15:31:19.121Z,98947.00
2022-11-07T15:32:52.297Z,98941.00
2022-11-07T15:34:52.588Z,98944.00
2022-11-07T15:36:21.148Z,98941.00
2022-11-07T15:37:57.288Z,98940.00
2022-11-07T15:39:31.037Z,98944.00
2022-11-07T15:41:04.420Z,98940.00
2022-11-07T15:42:37.704Z,98940.00
2022-11-07T15:44:10.937Z,98949.00
2022-11-07T15:45:45.012Z,98943.00
2022-11-07T15:47:24.261Z,98941.00
2022-11-07T15:48:58.720Z,98935.00
2022-11-07T15:50:32.568Z,98938.00
2022-11-07T15:52:06.101Z,98944.00
2022-11-07T15:53:39.533Z,98951.00
2022-11-07T15:55:19.696Z,98946.00
2022-11-07T15:57:03.182Z,98947.00
2022-11-07T15:58:36.472Z,98950.00
2022-11-07T16:00:17.768Z,98945.00
2022-11-07T16:01:51.157Z,98950.00
2022-11-07T16:03:28.014Z,98954.00
2022-11-07T16:05:01.153Z,98959.00
2022-11-07T16:06:35.237Z,98957.00
2022-11-07T16:08:10.436Z,98971.00
2022-11-07T16:09:43.709Z,98957.00
2022-11-07T16:11:16.874Z,98952.00
2022-11-07T16:12:50.386Z,98966.00
2022-11-07T16:14:43.515Z,98954.00
2022-11-07T16:16:23.077Z,98958.00
2022-11-07T16:17:56.837Z,98960.00
2022-11-07T16:19:32.048Z,98960.00
2022-11-07T16:21:06.067Z,98959.00
2022-11-07T16:22:39.279Z,98968.00
2022-11-07T16:24:12.618Z,98966.00
2022-11-07T16:25:49.201Z,98964.00
2022-11-07T16:27:22.414Z,98965.00
2022-11-07T16:28:56.070Z,98971.00
2022-11-07T16:30:29.277Z,98976.00
2022-11-07T16:32:02.557Z,98963.00
2022-11-07T16:33:35.880Z,98973.00
2022-11-07T16:35:11.616Z,98971.00
2022-11-07T16:36:44.948Z,98969.00
2022-11-07T16:38:20.959Z,98969.00
2022-11-07T16:39:54.210Z,98973.00
2022-11-07T16:41:27.597Z,98972.00
2022-11-07T16:43:03.357Z,98966.00
2022-11-07T16:44:36.737Z,98967.00
2022-11-07T16:46:15.353Z,98974.00
2022-11-07T16:47:48.888Z,98969.00
2022-11-07T16:49:29.291Z,98976.00
2022-11-07T16:51:04.138Z,98977.00
2022-11-07T16:52:37.219Z,98975.00
2022-11-07T16:54:10.401Z,98986.00
2022-11-07T16:55:53.095Z,98982.00
2022-11-07T16:57:27.470Z,98981.00
2022-11-07T16:59:01.272Z,98977.00
2022-11-07T17:00:34.801Z,98985.00
2022-11-07T17:02:21.288Z,98986.00
2022-11-07T17:03:56.003Z,98987.00
2022-11-07T17:05:29.236Z,98987.00
2022-11-07T17:07:04.074Z,98984.00
2022-11-07T17:08:41.660Z,98988.00
2022-11-07T17:10:18.809Z,98989.00
2022-11-07T17:11:52.141Z,98985.00
2022-11-07T17:13:25.398Z,98989.00
2022-11-07T17:14:58.665Z,98991.00
2022-11-07T17:16:35.457Z,98996.00
2022-11-07T17:18:19.037Z,98999.00
2022-11-07T17:19:52.643Z,99001.00
2022-11-07T17:21:29.068Z,98990.00
2022-11-07T17:23:03.621Z,99001.00
2022-11-07T17:24:36.829Z,99008.00
2022-11-07T17:26:10.978Z,99001.00
2022-11-07T17:27:44.233Z,99006.00
2022-11-07T17:29:17.666Z,98999.00
2022-11-07T17:30:50.977Z,99003.00
2022-11-07T17:32:24.344Z,98999.00
2022-11-07T17:33:57.542Z,99001.00
2022-11-07T17:35:33.001Z,99008.00
2022-11-07T17:37:06.609Z,99000.00
2022-11-07T17:38:41.267Z,99002.00
2022-11-07T17:40:22.659Z,98998.00
2022-11-07T17:41:56.005Z,99003.00
2022-11-07T17:43:29.273Z,98999.00
2022-11-07T17:45:02.400Z,98999.00
2022-11-07T17:46:42.500Z,99000.00
2022-11-07T17:48:16.025Z,98998.00
2022-11-07T17:49:49.393Z,98991.00
2022-11-07T17:51:22.772Z,99003.00
2022-11-07T17:52:55.988Z,98994.00
2022-11-07T17:54:30.487Z,98999.00
2022-11-07T17:56:03.753Z,99001.00
2022-11-07T17:57:38.032Z,99006.00
2022-11-07T17:59:18.431Z,99006.00
2022-11-07T18:00:51.700Z,99005.00
2022-11-07T18:02:25.155Z,98999.00
2022-11-07T18:03:59.045Z,99012.00
2022-11-07T18:05:34.590Z,99004.00
2022-11-07T18:07:07.893Z,99011.00
2022-11-07T18:08:56.711Z,99007.00
2022-11-07T18:10:31.495Z,99012.00
2022-11-07T18:12:05.222Z,99008.00
2022-11-07T18:13:39.680Z,99009.00
2022-11-07T18:15:13.589Z,99009.00
2022-11-07T18:16:46.789Z,99013.00
2022-11-07T18:18:20.228Z,99000.00
2022-11-07T18:19:53.698Z,99009.00
2022-11-07T18:21:27.516Z,99004.00
2022-11-07T18:23:00.829Z,99010.00
2022-11-07T18:24:33.940Z,99008.00
2022-11-07T18:26:11.692Z,99005.00
2022-11-07T18:27:44.870Z,99005.00
2022-11-07T18:29:18.542Z,99008.00
2022-11-07T18:30:51.671Z,99003.00
2022-11-07T18:32:24.979Z,98999.00
2022-11-07T18:33:59.745Z,99010.00
2022-11-07T18:35:32.950Z,99018.00
2022-11-07T18:37:06.088Z,99016.00
2022-11-07T18:38:39.786Z,99008.00
2022-11-07T18:40:13.872Z,99013.00
2022-11-07T18:41:49.787Z,99020.00
2022-11-07T18:43:23.070Z,99018.00
2022-11-07T18:44:56.225Z,99020.00
2022-11-07T18:46:29.624Z,99014.00
2022-11-07T18:48:03.090Z,99014.00
2022-11-07T18:49:36.458Z,99013.00
2022-11-07T18:51:12.641Z,99016.00
2022-11-07T18:52:45.844Z,99009.00
2022-11-07T18:54:19.178Z,99009.00
2022-11-07T18:55:58.552Z,99008.00
2022-11-07T18:57:33.452Z,99007.00
2022-11-07T18:59:06.626Z,99004.00
2022-11-07T19:00:40.083Z,98999.00
2022-11-07T19:02:13.789Z,99008.00
2022-11-07T19:03:47.980Z,99001.00
2022-11-07T19:05:21.952Z,99010.00